sensor_id;sensor_type;location;lat;lon;timestamp;P1;durP1;ratioP1;P2;durP2;ratioP2
37297;SDS011;30517;51.932;4.278;2023-04-25T00:01:46;3.92;;;1.40;;
37297;SDS011;30517;51.932;4.278;2023-04-25T00:04:27;3.47;;;1.50;;
37297;SDS011;30517;51.932;4.278;2023-04-25T00:07:09;3.80;;;1.30;;
37297;SDS011;30517;51.932;4.278;2023-04-25T00:09:50;5.22;;;1.35;;
37297;SDS011;30517;51.932;4.278;2023-04-25T00:12:31;6.93;;;1.65;;
37297;SDS011;30517;51.932;4.278;2023-04-25T00:15:13;5.45;;;1.83;;
37297;SDS011;30517;51.932;4.278;2023-04-25T00:17:54;7.38;;;2.15;;
37297;SDS011;30517;51.932;4.278;2023-04-25T00:20:35;4.65;;;1.75;;
37297;SDS011;30517;51.932;4.278;2023-04-25T00:23:16;5.38;;;1.55;;
37297;SDS011;30517;51.932;4.278;2023-04-25T00:25:58;5.25;;;2.17;;
37297;SDS011;30517;51.932;4.278;2023-04-25T00:28:39;7.60;;;1.60;;
37297;SDS011;30517;51.932;4.278;2023-04-25T00:31:20;6.45;;;1.95;;
37297;SDS011;30517;51.932;4.278;2023-04-25T00:34:01;7.85;;;1.95;;
37297;SDS011;30517;51.932;4.278;2023-04-25T00:36:42;3.33;;;1.48;;
37297;SDS011;30517;51.932;4.278;2023-04-25T00:39:23;4.95;;;1.88;;
37297;SDS011;30517;51.932;4.278;2023-04-25T00:42:04;5.50;;;1.60;;
37297;SDS011;30517;51.932;4.278;2023-04-25T00:44:45;6.40;;;1.98;;
37297;SDS011;30517;51.932;4.278;2023-04-25T00:47:27;6.07;;;1.85;;
37297;SDS011;30517;51.932;4.278;2023-04-25T00:50:09;5.05;;;1.75;;
37297;SDS011;30517;51.932;4.278;2023-04-25T00:52:51;6.43;;;1.67;;
37297;SDS011;30517;51.932;4.278;2023-04-25T00:55:32;6.15;;;1.85;;
37297;SDS011;30517;51.932;4.278;2023-04-25T00:58:14;4.18;;;1.88;;
37297;SDS011;30517;51.932;4.278;2023-04-25T01:00:55;3.10;;;1.27;;
37297;SDS011;30517;51.932;4.278;2023-04-25T01:03:38;4.22;;;1.50;;
37297;SDS011;30517;51.932;4.278;2023-04-25T01:06:22;3.17;;;1.20;;
37297;SDS011;30517;51.932;4.278;2023-04-25T01:09:03;3.67;;;1.50;;
37297;SDS011;30517;51.932;4.278;2023-04-25T01:11:45;3.00;;;1.23;;
37297;SDS011;30517;51.932;4.278;2023-04-25T01:14:26;4.40;;;1.50;;
37297;SDS011;30517;51.932;4.278;2023-04-25T01:17:06;5.20;;;1.77;;
37297;SDS011;30517;51.932;4.278;2023-04-25T01:19:49;4.80;;;1.40;;
37297;SDS011;30517;51.932;4.278;2023-04-25T01:22:31;5.60;;;1.40;;
37297;SDS011;30517;51.932;4.278;2023-04-25T01:25:12;6.00;;;2.00;;
37297;SDS011;30517;51.932;4.278;2023-04-25T01:27:53;5.43;;;1.60;;
37297;SDS011;30517;51.932;4.278;2023-04-25T01:30:34;5.43;;;1.55;;
37297;SDS011;30517;51.932;4.278;2023-04-25T01:33:16;2.95;;;1.40;;
37297;SDS011;30517;51.932;4.278;2023-04-25T01:35:57;4.18;;;1.42;;
37297;SDS011;30517;51.932;4.278;2023-04-25T01:38:38;3.17;;;1.33;;
37297;SDS011;30517;51.932;4.278;2023-04-25T01:41:20;5.05;;;1.70;;
37297;SDS011;30517;51.932;4.278;2023-04-25T01:44:03;8.10;;;1.73;;
37297;SDS011;30517;51.932;4.278;2023-04-25T01:46:44;4.28;;;2.05;;
37297;SDS011;30517;51.932;4.278;2023-04-25T01:49:25;5.13;;;1.75;;
37297;SDS011;30517;51.932;4.278;2023-04-25T01:52:06;5.10;;;1.75;;
37297;SDS011;30517;51.932;4.278;2023-04-25T01:54:47;3.67;;;1.40;;
37297;SDS011;30517;51.932;4.278;2023-04-25T01:57:28;4.25;;;1.30;;
37297;SDS011;30517;51.932;4.278;2023-04-25T02:00:09;5.22;;;1.40;;
37297;SDS011;30517;51.932;4.278;2023-04-25T02:02:50;5.18;;;1.50;;
37297;SDS011;30517;51.932;4.278;2023-04-25T02:05:36;3.97;;;1.35;;
37297;SDS011;30517;51.932;4.278;2023-04-25T02:08:18;4.10;;;1.52;;
37297;SDS011;30517;51.932;4.278;2023-04-25T02:10:59;3.38;;;1.52;;
37297;SDS011;30517;51.932;4.278;2023-04-25T02:13:40;5.03;;;1.20;;
37297;SDS011;30517;51.932;4.278;2023-04-25T02:16:21;5.90;;;1.63;;
37297;SDS011;30517;51.932;4.278;2023-04-25T02:19:02;4.60;;;1.48;;
37297;SDS011;30517;51.932;4.278;2023-04-25T02:21:43;2.60;;;1.13;;
37297;SDS011;30517;51.932;4.278;2023-04-25T02:24:24;4.53;;;1.52;;
37297;SDS011;30517;51.932;4.278;2023-04-25T02:27:04;5.28;;;1.50;;
37297;SDS011;30517;51.932;4.278;2023-04-25T02:29:45;7.03;;;1.88;;
37297;SDS011;30517;51.932;4.278;2023-04-25T02:32:26;3.38;;;1.33;;
37297;SDS011;30517;51.932;4.278;2023-04-25T02:35:07;5.68;;;1.85;;
37297;SDS011;30517;51.932;4.278;2023-04-25T02:37:48;5.78;;;1.75;;
37297;SDS011;30517;51.932;4.278;2023-04-25T02:40:29;3.67;;;1.40;;
37297;SDS011;30517;51.932;4.278;2023-04-25T02:43:10;2.30;;;1.10;;
37297;SDS011;30517;51.932;4.278;2023-04-25T02:45:51;3.40;;;1.50;;
37297;SDS011;30517;51.932;4.278;2023-04-25T02:48:32;3.25;;;1.30;;
37297;SDS011;30517;51.932;4.278;2023-04-25T02:51:12;3.72;;;1.65;;
37297;SDS011;30517;51.932;4.278;2023-04-25T02:53:53;4.38;;;1.10;;
37297;SDS011;30517;51.932;4.278;2023-04-25T02:56:34;3.33;;;1.20;;
37297;SDS011;30517;51.932;4.278;2023-04-25T02:59:15;4.07;;;1.45;;
37297;SDS011;30517;51.932;4.278;2023-04-25T03:01:56;4.53;;;1.80;;
37297;SDS011;30517;51.932;4.278;2023-04-25T03:04:37;3.75;;;1.45;;
37297;SDS011;30517;51.932;4.278;2023-04-25T03:07:18;5.50;;;1.73;;
37297;SDS011;30517;51.932;4.278;2023-04-25T03:09:58;2.83;;;1.48;;
37297;SDS011;30517;51.932;4.278;2023-04-25T03:12:39;3.50;;;1.40;;
37297;SDS011;30517;51.932;4.278;2023-04-25T03:15:20;3.33;;;1.40;;
37297;SDS011;30517;51.932;4.278;2023-04-25T03:18:01;4.68;;;1.65;;
37297;SDS011;30517;51.932;4.278;2023-04-25T03:20:42;7.07;;;1.73;;
37297;SDS011;30517;51.932;4.278;2023-04-25T03:23:23;2.33;;;1.25;;
37297;SDS011;30517;51.932;4.278;2023-04-25T03:26:04;5.72;;;1.50;;
37297;SDS011;30517;51.932;4.278;2023-04-25T03:28:45;4.53;;;1.92;;
37297;SDS011;30517;51.932;4.278;2023-04-25T03:31:26;5.45;;;1.50;;
37297;SDS011;30517;51.932;4.278;2023-04-25T03:34:07;5.88;;;1.90;;
37297;SDS011;30517;51.932;4.278;2023-04-25T03:36:47;3.47;;;1.40;;
37297;SDS011;30517;51.932;4.278;2023-04-25T03:39:28;3.92;;;1.40;;
37297;SDS011;30517;51.932;4.278;2023-04-25T03:42:09;7.35;;;1.70;;
37297;SDS011;30517;51.932;4.278;2023-04-25T03:44:51;3.85;;;1.27;;
37297;SDS011;30517;51.932;4.278;2023-04-25T03:47:32;2.90;;;1.23;;
37297;SDS011;30517;51.932;4.278;2023-04-25T03:50:13;5.10;;;1.40;;
37297;SDS011;30517;51.932;4.278;2023-04-25T03:52:54;4.30;;;1.58;;
37297;SDS011;30517;51.932;4.278;2023-04-25T03:55:35;4.43;;;1.60;;
37297;SDS011;30517;51.932;4.278;2023-04-25T03:58:15;2.55;;;1.10;;
37297;SDS011;30517;51.932;4.278;2023-04-25T04:00:56;4.32;;;1.48;;
37297;SDS011;30517;51.932;4.278;2023-04-25T04:03:37;3.78;;;1.40;;
37297;SDS011;30517;51.932;4.278;2023-04-25T04:06:18;3.65;;;1.63;;
37297;SDS011;30517;51.932;4.278;2023-04-25T04:09:00;3.67;;;1.27;;
37297;SDS011;30517;51.932;4.278;2023-04-25T04:11:41;9.18;;;1.40;;
37297;SDS011;30517;51.932;4.278;2023-04-25T04:14:22;4.65;;;1.40;;
37297;SDS011;30517;51.932;4.278;2023-04-25T04:17:03;5.00;;;1.48;;
37297;SDS011;30517;51.932;4.278;2023-04-25T04:19:44;3.63;;;1.38;;
37297;SDS011;30517;51.932;4.278;2023-04-25T04:22:25;2.92;;;1.20;;
37297;SDS011;30517;51.932;4.278;2023-04-25T04:25:06;3.08;;;1.30;;
37297;SDS011;30517;51.932;4.278;2023-04-25T04:27:47;3.05;;;1.23;;
37297;SDS011;30517;51.932;4.278;2023-04-25T04:30:28;3.72;;;1.13;;
37297;SDS011;30517;51.932;4.278;2023-04-25T04:33:09;3.97;;;1.00;;
37297;SDS011;30517;51.932;4.278;2023-04-25T04:35:51;3.50;;;1.05;;
37297;SDS011;30517;51.932;4.278;2023-04-25T04:38:33;6.88;;;1.45;;
37297;SDS011;30517;51.932;4.278;2023-04-25T04:41:14;2.05;;;1.20;;
37297;SDS011;30517;51.932;4.278;2023-04-25T04:43:56;3.47;;;1.13;;
37297;SDS011;30517;51.932;4.278;2023-04-25T04:46:36;4.40;;;1.20;;
37297;SDS011;30517;51.932;4.278;2023-04-25T04:49:21;2.97;;;1.17;;
37297;SDS011;30517;51.932;4.278;2023-04-25T04:52:02;5.40;;;1.27;;
37297;SDS011;30517;51.932;4.278;2023-04-25T04:54:43;5.40;;;1.60;;
37297;SDS011;30517;51.932;4.278;2023-04-25T04:57:24;3.42;;;1.50;;
37297;SDS011;30517;51.932;4.278;2023-04-25T05:00:06;3.33;;;1.30;;
37297;SDS011;30517;51.932;4.278;2023-04-25T05:02:51;2.20;;;1.05;;
37297;SDS011;30517;51.932;4.278;2023-04-25T05:05:31;3.17;;;1.50;;
37297;SDS011;30517;51.932;4.278;2023-04-25T05:08:12;4.53;;;1.38;;
37297;SDS011;30517;51.932;4.278;2023-04-25T05:10:53;6.50;;;1.50;;
37297;SDS011;30517;51.932;4.278;2023-04-25T05:13:34;5.13;;;1.40;;
37297;SDS011;30517;51.932;4.278;2023-04-25T05:16:15;2.97;;;1.25;;
37297;SDS011;30517;51.932;4.278;2023-04-25T05:18:56;7.03;;;1.60;;
37297;SDS011;30517;51.932;4.278;2023-04-25T05:21:37;3.35;;;1.33;;
37297;SDS011;30517;51.932;4.278;2023-04-25T05:24:18;4.07;;;1.55;;
37297;SDS011;30517;51.932;4.278;2023-04-25T05:26:59;2.40;;;1.08;;
37297;SDS011;30517;51.932;4.278;2023-04-25T05:29:40;3.75;;;1.20;;
37297;SDS011;30517;51.932;4.278;2023-04-25T05:32:21;2.97;;;1.38;;
37297;SDS011;30517;51.932;4.278;2023-04-25T05:35:02;3.75;;;1.75;;
37297;SDS011;30517;51.932;4.278;2023-04-25T05:37:43;2.35;;;1.00;;
37297;SDS011;30517;51.932;4.278;2023-04-25T05:40:24;4.05;;;1.50;;
37297;SDS011;30517;51.932;4.278;2023-04-25T05:43:05;3.10;;;1.35;;
37297;SDS011;30517;51.932;4.278;2023-04-25T05:45:46;2.30;;;1.23;;
37297;SDS011;30517;51.932;4.278;2023-04-25T05:48:26;3.63;;;1.30;;
37297;SDS011;30517;51.932;4.278;2023-04-25T05:51:07;3.33;;;1.20;;
37297;SDS011;30517;51.932;4.278;2023-04-25T05:53:48;3.65;;;1.50;;
37297;SDS011;30517;51.932;4.278;2023-04-25T05:56:29;5.05;;;1.30;;
37297;SDS011;30517;51.932;4.278;2023-04-25T05:59:10;7.90;;;1.60;;
37297;SDS011;30517;51.932;4.278;2023-04-25T06:01:51;4.07;;;1.30;;
37297;SDS011;30517;51.932;4.278;2023-04-25T06:04:31;6.40;;;1.52;;
37297;SDS011;30517;51.932;4.278;2023-04-25T06:07:12;4.35;;;1.00;;
37297;SDS011;30517;51.932;4.278;2023-04-25T06:09:53;2.33;;;1.10;;
37297;SDS011;30517;51.932;4.278;2023-04-25T06:12:34;3.10;;;1.33;;
37297;SDS011;30517;51.932;4.278;2023-04-25T06:15:15;3.33;;;1.02;;
37297;SDS011;30517;51.932;4.278;2023-04-25T06:17:56;1.25;;;0.88;;
37297;SDS011;30517;51.932;4.278;2023-04-25T06:20:36;4.18;;;1.50;;
37297;SDS011;30517;51.932;4.278;2023-04-25T06:23:17;4.32;;;1.20;;
37297;SDS011;30517;51.932;4.278;2023-04-25T06:25:58;3.00;;;1.05;;
37297;SDS011;30517;51.932;4.278;2023-04-25T06:28:39;3.83;;;1.60;;
37297;SDS011;30517;51.932;4.278;2023-04-25T06:31:20;4.35;;;1.00;;
37297;SDS011;30517;51.932;4.278;2023-04-25T06:34:01;2.33;;;1.10;;
37297;SDS011;30517;51.932;4.278;2023-04-25T06:36:42;2.72;;;1.17;;
37297;SDS011;30517;51.932;4.278;2023-04-25T06:39:24;3.45;;;1.30;;
37297;SDS011;30517;51.932;4.278;2023-04-25T06:42:05;2.83;;;1.13;;
37297;SDS011;30517;51.932;4.278;2023-04-25T06:44:46;3.03;;;1.05;;
37297;SDS011;30517;51.932;4.278;2023-04-25T06:47:27;1.50;;;0.95;;
37297;SDS011;30517;51.932;4.278;2023-04-25T06:50:08;2.95;;;1.30;;
37297;SDS011;30517;51.932;4.278;2023-04-25T06:52:49;2.92;;;0.90;;
37297;SDS011;30517;51.932;4.278;2023-04-25T06:55:30;2.97;;;1.13;;
37297;SDS011;30517;51.932;4.278;2023-04-25T06:58:11;3.50;;;0.98;;
37297;SDS011;30517;51.932;4.278;2023-04-25T07:00:51;4.22;;;1.05;;
37297;SDS011;30517;51.932;4.278;2023-04-25T07:03:32;3.95;;;1.25;;
37297;SDS011;30517;51.932;4.278;2023-04-25T07:06:13;2.72;;;1.10;;
37297;SDS011;30517;51.932;4.278;2023-04-25T07:08:54;3.28;;;0.85;;
37297;SDS011;30517;51.932;4.278;2023-04-25T07:11:36;3.92;;;1.17;;
37297;SDS011;30517;51.932;4.278;2023-04-25T07:14:17;2.95;;;1.13;;
37297;SDS011;30517;51.932;4.278;2023-04-25T07:16:57;2.47;;;1.10;;
37297;SDS011;30517;51.932;4.278;2023-04-25T07:19:38;3.60;;;1.15;;
37297;SDS011;30517;51.932;4.278;2023-04-25T07:22:20;1.73;;;0.80;;
37297;SDS011;30517;51.932;4.278;2023-04-25T07:25:04;0.82;;;0.57;;
37297;SDS011;30517;51.932;4.278;2023-04-25T07:27:46;2.70;;;0.98;;
37297;SDS011;30517;51.932;4.278;2023-04-25T07:30:27;1.85;;;0.90;;
37297;SDS011;30517;51.932;4.278;2023-04-25T07:33:08;3.42;;;1.00;;
37297;SDS011;30517;51.932;4.278;2023-04-25T07:35:49;3.78;;;0.95;;
37297;SDS011;30517;51.932;4.278;2023-04-25T07:38:30;2.60;;;0.80;;
37297;SDS011;30517;51.932;4.278;2023-04-25T07:41:15;2.65;;;0.93;;
37297;SDS011;30517;51.932;4.278;2023-04-25T07:43:55;3.42;;;0.90;;
37297;SDS011;30517;51.932;4.278;2023-04-25T07:46:36;2.88;;;1.17;;
37297;SDS011;30517;51.932;4.278;2023-04-25T07:49:17;4.15;;;1.23;;
37297;SDS011;30517;51.932;4.278;2023-04-25T07:51:58;3.00;;;0.90;;
37297;SDS011;30517;51.932;4.278;2023-04-25T07:54:39;2.55;;;0.85;;
37297;SDS011;30517;51.932;4.278;2023-04-25T07:57:24;1.13;;;0.73;;
37297;SDS011;30517;51.932;4.278;2023-04-25T08:00:05;2.92;;;0.75;;
37297;SDS011;30517;51.932;4.278;2023-04-25T08:02:49;2.65;;;0.80;;
37297;SDS011;30517;51.932;4.278;2023-04-25T08:05:31;4.20;;;1.25;;
37297;SDS011;30517;51.932;4.278;2023-04-25T08:08:11;1.83;;;0.80;;
37297;SDS011;30517;51.932;4.278;2023-04-25T08:10:52;2.60;;;1.02;;
37297;SDS011;30517;51.932;4.278;2023-04-25T08:13:34;1.33;;;0.60;;
37297;SDS011;30517;51.932;4.278;2023-04-25T08:16:15;2.33;;;0.85;;
37297;SDS011;30517;51.932;4.278;2023-04-25T08:18:56;1.17;;;0.55;;
37297;SDS011;30517;51.932;4.278;2023-04-25T08:21:36;2.65;;;0.90;;
37297;SDS011;30517;51.932;4.278;2023-04-25T08:24:17;4.43;;;0.98;;
37297;SDS011;30517;51.932;4.278;2023-04-25T08:26:58;4.13;;;1.10;;
37297;SDS011;30517;51.932;4.278;2023-04-25T08:29:39;2.75;;;0.82;;
37297;SDS011;30517;51.932;4.278;2023-04-25T08:32:20;2.42;;;0.93;;
37297;SDS011;30517;51.932;4.278;2023-04-25T08:35:01;3.85;;;1.05;;
37297;SDS011;30517;51.932;4.278;2023-04-25T08:37:42;1.65;;;0.70;;
37297;SDS011;30517;51.932;4.278;2023-04-25T08:40:23;4.07;;;1.08;;
37297;SDS011;30517;51.932;4.278;2023-04-25T08:43:11;3.90;;;1.10;;
37297;SDS011;30517;51.932;4.278;2023-04-25T08:45:54;4.70;;;1.25;;
37297;SDS011;30517;51.932;4.278;2023-04-25T08:48:40;4.60;;;1.10;;
37297;SDS011;30517;51.932;4.278;2023-04-25T08:51:21;3.70;;;0.85;;
37297;SDS011;30517;51.932;4.278;2023-04-25T08:54:11;3.67;;;1.00;;
37297;SDS011;30517;51.932;4.278;2023-04-25T08:56:53;2.10;;;0.77;;
37297;SDS011;30517;51.932;4.278;2023-04-25T08:59:35;1.88;;;0.70;;
37297;SDS011;30517;51.932;4.278;2023-04-25T09:02:18;1.55;;;0.70;;
37297;SDS011;30517;51.932;4.278;2023-04-25T09:05:00;2.58;;;0.70;;
37297;SDS011;30517;51.932;4.278;2023-04-25T09:11:21;1.77;;;0.90;;
37297;SDS011;30517;51.932;4.278;2023-04-25T09:19:36;2.45;;;0.95;;
37297;SDS011;30517;51.932;4.278;2023-04-25T09:22:20;2.28;;;0.90;;
37297;SDS011;30517;51.932;4.278;2023-04-25T09:25:09;3.40;;;0.80;;
37297;SDS011;30517;51.932;4.278;2023-04-25T09:27:51;1.98;;;0.90;;
37297;SDS011;30517;51.932;4.278;2023-04-25T09:30:34;2.40;;;0.88;;
37297;SDS011;30517;51.932;4.278;2023-04-25T09:33:16;1.83;;;0.70;;
37297;SDS011;30517;51.932;4.278;2023-04-25T09:36:07;2.25;;;0.80;;
37297;SDS011;30517;51.932;4.278;2023-04-25T09:38:51;3.53;;;1.08;;
37297;SDS011;30517;51.932;4.278;2023-04-25T09:41:31;2.40;;;1.02;;
37297;SDS011;30517;51.932;4.278;2023-04-25T09:44:22;0.93;;;0.68;;
37297;SDS011;30517;51.932;4.278;2023-04-25T09:47:05;2.03;;;0.90;;
37297;SDS011;30517;51.932;4.278;2023-04-25T09:49:50;2.00;;;0.98;;
37297;SDS011;30517;51.932;4.278;2023-04-25T09:52:32;1.75;;;0.80;;
37297;SDS011;30517;51.932;4.278;2023-04-25T09:55:13;2.70;;;0.80;;
37297;SDS011;30517;51.932;4.278;2023-04-25T09:57:54;2.25;;;0.85;;
37297;SDS011;30517;51.932;4.278;2023-04-25T10:03:18;2.20;;;0.77;;
37297;SDS011;30517;51.932;4.278;2023-04-25T10:06:02;1.20;;;0.70;;
37297;SDS011;30517;51.932;4.278;2023-04-25T10:08:44;1.05;;;0.60;;
37297;SDS011;30517;51.932;4.278;2023-04-25T10:11:27;4.83;;;0.87;;
37297;SDS011;30517;51.932;4.278;2023-04-25T10:14:08;4.03;;;1.13;;
37297;SDS011;30517;51.932;4.278;2023-04-25T10:16:49;2.25;;;0.63;;
37297;SDS011;30517;51.932;4.278;2023-04-25T10:22:18;3.15;;;0.77;;
37297;SDS011;30517;51.932;4.278;2023-04-25T10:25:10;5.65;;;1.23;;
37297;SDS011;30517;51.932;4.278;2023-04-25T10:27:53;4.63;;;1.35;;
37297;SDS011;30517;51.932;4.278;2023-04-25T10:30:34;1.73;;;0.70;;
37297;SDS011;30517;51.932;4.278;2023-04-25T10:33:18;3.20;;;0.75;;
37297;SDS011;30517;51.932;4.278;2023-04-25T10:36:15;3.78;;;0.90;;
37297;SDS011;30517;51.932;4.278;2023-04-25T10:38:58;2.58;;;0.93;;
37297;SDS011;30517;51.932;4.278;2023-04-25T10:41:48;6.22;;;1.10;;
37297;SDS011;30517;51.932;4.278;2023-04-25T10:44:33;3.33;;;0.80;;
37297;SDS011;30517;51.932;4.278;2023-04-25T10:47:22;2.47;;;0.85;;
37297;SDS011;30517;51.932;4.278;2023-04-25T10:50:24;2.90;;;0.90;;
37297;SDS011;30517;51.932;4.278;2023-04-25T10:53:18;1.42;;;0.70;;
37297;SDS011;30517;51.932;4.278;2023-04-25T10:55:59;2.58;;;1.00;;
37297;SDS011;30517;51.932;4.278;2023-04-25T10:58:43;4.25;;;1.00;;
37297;SDS011;30517;51.932;4.278;2023-04-25T11:01:25;2.17;;;0.88;;
37297;SDS011;30517;51.932;4.278;2023-04-25T11:04:06;3.17;;;1.00;;
37297;SDS011;30517;51.932;4.278;2023-04-25T11:09:54;2.55;;;0.57;;
37297;SDS011;30517;51.932;4.278;2023-04-25T11:12:35;2.08;;;0.77;;
37297;SDS011;30517;51.932;4.278;2023-04-25T11:15:16;2.00;;;0.75;;
37297;SDS011;30517;51.932;4.278;2023-04-25T11:17:57;3.00;;;1.00;;
37297;SDS011;30517;51.932;4.278;2023-04-25T11:20:37;1.45;;;0.85;;
37297;SDS011;30517;51.932;4.278;2023-04-25T11:23:18;3.08;;;1.02;;
37297;SDS011;30517;51.932;4.278;2023-04-25T11:25:59;4.47;;;1.00;;
37297;SDS011;30517;51.932;4.278;2023-04-25T11:28:44;2.15;;;0.73;;
37297;SDS011;30517;51.932;4.278;2023-04-25T11:31:25;3.13;;;0.90;;
37297;SDS011;30517;51.932;4.278;2023-04-25T11:34:06;2.17;;;0.93;;
37297;SDS011;30517;51.932;4.278;2023-04-25T11:36:47;6.90;;;0.95;;
37297;SDS011;30517;51.932;4.278;2023-04-25T11:39:28;3.25;;;1.00;;
37297;SDS011;30517;51.932;4.278;2023-04-25T11:42:09;7.82;;;1.42;;
37297;SDS011;30517;51.932;4.278;2023-04-25T11:44:50;6.93;;;1.27;;
37297;SDS011;30517;51.932;4.278;2023-04-25T11:47:32;1.88;;;1.00;;
37297;SDS011;30517;51.932;4.278;2023-04-25T11:50:14;3.53;;;0.82;;
37297;SDS011;30517;51.932;4.278;2023-04-25T11:52:55;6.15;;;0.88;;
37297;SDS011;30517;51.932;4.278;2023-04-25T11:55:37;3.35;;;0.90;;
37297;SDS011;30517;51.932;4.278;2023-04-25T11:58:18;3.22;;;1.13;;
37297;SDS011;30517;51.932;4.278;2023-04-25T12:00:59;5.00;;;0.98;;
37297;SDS011;30517;51.932;4.278;2023-04-25T12:03:46;4.40;;;1.17;;
37297;SDS011;30517;51.932;4.278;2023-04-25T12:06:27;5.20;;;1.00;;
37297;SDS011;30517;51.932;4.278;2023-04-25T12:09:09;3.55;;;1.23;;
37297;SDS011;30517;51.932;4.278;2023-04-25T12:11:54;3.10;;;0.80;;
37297;SDS011;30517;51.932;4.278;2023-04-25T12:14:36;3.63;;;1.15;;
37297;SDS011;30517;51.932;4.278;2023-04-25T12:17:17;4.47;;;1.13;;
37297;SDS011;30517;51.932;4.278;2023-04-25T12:19:58;3.42;;;0.88;;
37297;SDS011;30517;51.932;4.278;2023-04-25T12:22:40;3.67;;;1.35;;
37297;SDS011;30517;51.932;4.278;2023-04-25T12:25:43;4.57;;;1.05;;
37297;SDS011;30517;51.932;4.278;2023-04-25T12:28:25;6.72;;;1.20;;
37297;SDS011;30517;51.932;4.278;2023-04-25T12:31:11;2.05;;;0.70;;
37297;SDS011;30517;51.932;4.278;2023-04-25T12:33:54;6.00;;;1.27;;
37297;SDS011;30517;51.932;4.278;2023-04-25T12:36:35;0.90;;;0.68;;
37297;SDS011;30517;51.932;4.278;2023-04-25T12:42:03;4.03;;;0.90;;
37297;SDS011;30517;51.932;4.278;2023-04-25T12:44:44;3.92;;;1.02;;
37297;SDS011;30517;51.932;4.278;2023-04-25T12:47:26;2.63;;;0.95;;
37297;SDS011;30517;51.932;4.278;2023-04-25T12:50:07;1.63;;;0.75;;
37297;SDS011;30517;51.932;4.278;2023-04-25T12:52:48;5.38;;;1.20;;
37297;SDS011;30517;51.932;4.278;2023-04-25T12:55:29;5.35;;;1.40;;
37297;SDS011;30517;51.932;4.278;2023-04-25T12:58:10;3.78;;;1.00;;
37297;SDS011;30517;51.932;4.278;2023-04-25T13:00:51;3.70;;;0.98;;
37297;SDS011;30517;51.932;4.278;2023-04-25T13:03:32;4.00;;;1.20;;
37297;SDS011;30517;51.932;4.278;2023-04-25T13:06:14;3.08;;;1.10;;
37297;SDS011;30517;51.932;4.278;2023-04-25T13:08:56;2.67;;;1.20;;
37297;SDS011;30517;51.932;4.278;2023-04-25T13:11:37;4.50;;;1.40;;
37297;SDS011;30517;51.932;4.278;2023-04-25T13:14:18;3.72;;;1.30;;
37297;SDS011;30517;51.932;4.278;2023-04-25T13:16:58;4.78;;;1.10;;
37297;SDS011;30517;51.932;4.278;2023-04-25T13:19:39;2.95;;;0.77;;
37297;SDS011;30517;51.932;4.278;2023-04-25T13:22:20;1.70;;;0.75;;
37297;SDS011;30517;51.932;4.278;2023-04-25T13:25:01;3.65;;;1.15;;
37297;SDS011;30517;51.932;4.278;2023-04-25T13:27:41;5.75;;;1.10;;
37297;SDS011;30517;51.932;4.278;2023-04-25T13:30:24;3.97;;;1.13;;
37297;SDS011;30517;51.932;4.278;2023-04-25T13:33:05;2.17;;;0.95;;
37297;SDS011;30517;51.932;4.278;2023-04-25T13:35:47;4.15;;;1.02;;
37297;SDS011;30517;51.932;4.278;2023-04-25T13:38:33;2.75;;;1.00;;
37297;SDS011;30517;51.932;4.278;2023-04-25T13:41:14;2.50;;;1.00;;
37297;SDS011;30517;51.932;4.278;2023-04-25T13:43:58;1.92;;;0.95;;
37297;SDS011;30517;51.932;4.278;2023-04-25T13:46:40;2.20;;;0.90;;
37297;SDS011;30517;51.932;4.278;2023-04-25T13:49:21;5.00;;;1.35;;
37297;SDS011;30517;51.932;4.278;2023-04-25T13:52:02;4.13;;;1.10;;
37297;SDS011;30517;51.932;4.278;2023-04-25T13:54:43;3.65;;;1.15;;
37297;SDS011;30517;51.932;4.278;2023-04-25T13:57:24;3.92;;;1.40;;
37297;SDS011;30517;51.932;4.278;2023-04-25T14:00:05;2.47;;;1.02;;
37297;SDS011;30517;51.932;4.278;2023-04-25T14:02:48;1.77;;;0.80;;
37297;SDS011;30517;51.932;4.278;2023-04-25T14:05:29;5.38;;;1.38;;
37297;SDS011;30517;51.932;4.278;2023-04-25T14:08:10;3.45;;;1.13;;
37297;SDS011;30517;51.932;4.278;2023-04-25T14:10:51;3.83;;;1.05;;
37297;SDS011;30517;51.932;4.278;2023-04-25T14:13:32;3.50;;;1.10;;
37297;SDS011;30517;51.932;4.278;2023-04-25T14:16:13;3.13;;;0.93;;
37297;SDS011;30517;51.932;4.278;2023-04-25T14:18:54;3.28;;;1.10;;
37297;SDS011;30517;51.932;4.278;2023-04-25T14:21:35;3.60;;;1.00;;
37297;SDS011;30517;51.932;4.278;2023-04-25T14:24:16;5.35;;;1.15;;
37297;SDS011;30517;51.932;4.278;2023-04-25T14:26:57;4.22;;;1.00;;
37297;SDS011;30517;51.932;4.278;2023-04-25T14:29:37;5.05;;;1.27;;
37297;SDS011;30517;51.932;4.278;2023-04-25T14:32:18;4.82;;;1.38;;
37297;SDS011;30517;51.932;4.278;2023-04-25T14:35:00;2.78;;;1.05;;
37297;SDS011;30517;51.932;4.278;2023-04-25T14:37:40;2.95;;;1.13;;
37297;SDS011;30517;51.932;4.278;2023-04-25T14:40:21;4.85;;;1.60;;
37297;SDS011;30517;51.932;4.278;2023-04-25T14:43:03;1.95;;;0.90;;
37297;SDS011;30517;51.932;4.278;2023-04-25T14:45:43;2.38;;;0.80;;
37297;SDS011;30517;51.932;4.278;2023-04-25T14:48:25;4.97;;;1.05;;
37297;SDS011;30517;51.932;4.278;2023-04-25T14:51:05;2.97;;;0.93;;
37297;SDS011;30517;51.932;4.278;2023-04-25T14:53:46;2.72;;;0.88;;
37297;SDS011;30517;51.932;4.278;2023-04-25T14:56:27;2.92;;;0.95;;
37297;SDS011;30517;51.932;4.278;2023-04-25T14:59:08;2.70;;;0.93;;
37297;SDS011;30517;51.932;4.278;2023-04-25T15:01:49;3.28;;;1.00;;
37297;SDS011;30517;51.932;4.278;2023-04-25T15:04:31;4.03;;;1.27;;
37297;SDS011;30517;51.932;4.278;2023-04-25T15:07:15;3.35;;;1.15;;
37297;SDS011;30517;51.932;4.278;2023-04-25T15:09:56;3.15;;;1.27;;
37297;SDS011;30517;51.932;4.278;2023-04-25T15:12:37;1.75;;;0.98;;
37297;SDS011;30517;51.932;4.278;2023-04-25T15:15:18;3.72;;;0.95;;
37297;SDS011;30517;51.932;4.278;2023-04-25T15:17:59;2.65;;;0.90;;
37297;SDS011;30517;51.932;4.278;2023-04-25T15:20:40;3.03;;;1.00;;
37297;SDS011;30517;51.932;4.278;2023-04-25T15:23:21;2.45;;;0.80;;
37297;SDS011;30517;51.932;4.278;2023-04-25T15:26:01;2.47;;;0.80;;
37297;SDS011;30517;51.932;4.278;2023-04-25T15:28:43;2.88;;;1.10;;
37297;SDS011;30517;51.932;4.278;2023-04-25T15:31:24;4.65;;;1.60;;
37297;SDS011;30517;51.932;4.278;2023-04-25T15:34:05;2.20;;;1.02;;
37297;SDS011;30517;51.932;4.278;2023-04-25T15:36:46;1.92;;;1.10;;
37297;SDS011;30517;51.932;4.278;2023-04-25T15:39:27;2.58;;;0.85;;
37297;SDS011;30517;51.932;4.278;2023-04-25T15:42:08;3.55;;;1.02;;
37297;SDS011;30517;51.932;4.278;2023-04-25T15:44:49;2.17;;;0.95;;
37297;SDS011;30517;51.932;4.278;2023-04-25T15:47:29;3.28;;;1.30;;
37297;SDS011;30517;51.932;4.278;2023-04-25T15:50:10;3.90;;;1.02;;
37297;SDS011;30517;51.932;4.278;2023-04-25T15:52:52;4.97;;;0.98;;
37297;SDS011;30517;51.932;4.278;2023-04-25T15:55:33;4.65;;;1.02;;
37297;SDS011;30517;51.932;4.278;2023-04-25T15:58:15;2.15;;;0.90;;
37297;SDS011;30517;51.932;4.278;2023-04-25T16:00:55;2.35;;;1.20;;
37297;SDS011;30517;51.932;4.278;2023-04-25T16:03:36;1.83;;;0.98;;
37297;SDS011;30517;51.932;4.278;2023-04-25T16:06:17;2.05;;;1.10;;
37297;SDS011;30517;51.932;4.278;2023-04-25T16:08:58;1.60;;;0.80;;
37297;SDS011;30517;51.932;4.278;2023-04-25T16:11:39;2.42;;;1.10;;
37297;SDS011;30517;51.932;4.278;2023-04-25T16:14:23;2.22;;;0.90;;
37297;SDS011;30517;51.932;4.278;2023-04-25T16:17:04;3.33;;;1.17;;
37297;SDS011;30517;51.932;4.278;2023-04-25T16:19:45;3.58;;;1.30;;
37297;SDS011;30517;51.932;4.278;2023-04-25T16:22:26;3.50;;;0.90;;
37297;SDS011;30517;51.932;4.278;2023-04-25T16:25:07;3.72;;;1.05;;
37297;SDS011;30517;51.932;4.278;2023-04-25T16:27:49;6.25;;;1.10;;
37297;SDS011;30517;51.932;4.278;2023-04-25T16:30:30;4.47;;;1.10;;
37297;SDS011;30517;51.932;4.278;2023-04-25T16:33:11;6.63;;;1.58;;
37297;SDS011;30517;51.932;4.278;2023-04-25T16:35:52;6.40;;;1.75;;